sensor_id;sensor_type;location;lat;lon;timestamp;temperature;humidity
16515;DHT22;8370;52.556;7.970;2023-07-20T00:02:09;16.70;99.90
16515;DHT22;8370;52.556;7.970;2023-07-20T00:04:34;16.70;99.90
16515;DHT22;8370;52.556;7.970;2023-07-20T00:07:00;16.70;99.90
16515;DHT22;8370;52.556;7.970;2023-07-20T00:09:28;16.70;99.90
16515;DHT22;8370;52.556;7.970;2023-07-20T00:11:54;16.70;99.90
16515;DHT22;8370;52.556;7.970;2023-07-20T00:14:19;16.70;99.90
16515;DHT22;8370;52.556;7.970;2023-07-20T00:16:45;16.70;99.90
16515;DHT22;8370;52.556;7.970;2023-07-20T00:19:12;16.70;99.90
16515;DHT22;8370;52.556;7.970;2023-07-20T00:21:37;16.70;99.90
16515;DHT22;8370;52.556;7.970;2023-07-20T00:24:05;16.70;99.90
16515;DHT22;8370;52.556;7.970;2023-07-20T00:26:31;16.70;99.90
16515;DHT22;8370;52.556;7.970;2023-07-20T00:28:56;16.70;99.90
16515;DHT22;8370;52.556;7.970;2023-07-20T00:31:21;16.70;99.90
16515;DHT22;8370;52.556;7.970;2023-07-20T00:33:47;16.70;99.90
16515;DHT22;8370;52.556;7.970;2023-07-20T00:36:13;16.70;99.90
16515;DHT22;8370;52.556;7.970;2023-07-20T00:38:39;16.70;99.90
16515;DHT22;8370;52.556;7.970;2023-07-20T00:41:06;16.70;99.90
16515;DHT22;8370;52.556;7.970;2023-07-20T00:43:31;16.70;99.90
16515;DHT22;8370;52.556;7.970;2023-07-20T00:45:57;16.70;99.90
16515;DHT22;8370;52.556;7.970;2023-07-20T00:48:22;16.70;99.90
16515;DHT22;8370;52.556;7.970;2023-07-20T00:50:48;16.60;99.90
16515;DHT22;8370;52.556;7.970;2023-07-20T00:53:14;16.60;99.90
16515;DHT22;8370;52.556;7.970;2023-07-20T00:55:39;16.60;99.90
16515;DHT22;8370;52.556;7.970;2023-07-20T00:58:05;16.60;99.90
16515;DHT22;8370;52.556;7.970;2023-07-20T01:00:30;16.60;99.90
16515;DHT22;8370;52.556;7.970;2023-07-20T01:02:56;16.60;99.90
16515;DHT22;8370;52.556;7.970;2023-07-20T01:05:22;16.60;99.90
16515;DHT22;8370;52.556;7.970;2023-07-20T01:10:19;16.60;99.90
16515;DHT22;8370;52.556;7.970;2023-07-20T01:12:50;16.50;99.90
16515;DHT22;8370;52.556;7.970;2023-07-20T01:15:16;16.60;99.90
16515;DHT22;8370;52.556;7.970;2023-07-20T01:17:42;16.60;99.90
16515;DHT22;8370;52.556;7.970;2023-07-20T01:20:08;16.50;99.90
16515;DHT22;8370;52.556;7.970;2023-07-20T01:33:15;16.50;99.90
16515;DHT22;8370;52.556;7.970;2023-07-20T01:35:42;16.40;99.90
16515;DHT22;8370;52.556;7.970;2023-07-20T01:38:09;16.40;99.90
16515;DHT22;8370;52.556;7.970;2023-07-20T01:40:36;16.40;99.90
16515;DHT22;8370;52.556;7.970;2023-07-20T01:43:02;16.30;99.90
16515;DHT22;8370;52.556;7.970;2023-07-20T01:45:28;16.30;99.90
16515;DHT22;8370;52.556;7.970;2023-07-20T01:47:53;16.30;99.90
16515;DHT22;8370;52.556;7.970;2023-07-20T01:50:19;16.20;99.90
16515;DHT22;8370;52.556;7.970;2023-07-20T01:52:44;16.20;99.90
16515;DHT22;8370;52.556;7.970;2023-07-20T01:55:10;16.20;99.90
16515;DHT22;8370;52.556;7.970;2023-07-20T01:57:35;16.10;99.90
16515;DHT22;8370;52.556;7.970;2023-07-20T02:00:01;16.10;99.90
16515;DHT22;8370;52.556;7.970;2023-07-20T02:02:26;16.00;99.90
16515;DHT22;8370;52.556;7.970;2023-07-20T02:04:53;16.00;99.90
16515;DHT22;8370;52.556;7.970;2023-07-20T02:07:18;16.00;99.90
16515;DHT22;8370;52.556;7.970;2023-07-20T02:09:44;15.90;99.90
16515;DHT22;8370;52.556;7.970;2023-07-20T02:12:09;15.80;99.90
16515;DHT22;8370;52.556;7.970;2023-07-20T02:14:35;15.70;99.90
16515;DHT22;8370;52.556;7.970;2023-07-20T02:17:00;15.60;99.90
16515;DHT22;8370;52.556;7.970;2023-07-20T02:19:26;15.60;99.90
16515;DHT22;8370;52.556;7.970;2023-07-20T02:21:52;15.60;99.90
16515;DHT22;8370;52.556;7.970;2023-07-20T02:24:18;15.60;99.90
16515;DHT22;8370;52.556;7.970;2023-07-20T02:26:43;15.60;99.90
16515;DHT22;8370;52.556;7.970;2023-07-20T02:29:09;15.50;99.90
16515;DHT22;8370;52.556;7.970;2023-07-20T02:31:37;15.50;99.90
16515;DHT22;8370;52.556;7.970;2023-07-20T02:34:03;15.40;99.90
16515;DHT22;8370;52.556;7.970;2023-07-20T02:36:28;15.30;99.90
16515;DHT22;8370;52.556;7.970;2023-07-20T02:38:53;15.30;99.90
16515;DHT22;8370;52.556;7.970;2023-07-20T02:41:19;15.30;99.90
16515;DHT22;8370;52.556;7.970;2023-07-20T02:43:45;15.20;99.90
16515;DHT22;8370;52.556;7.970;2023-07-20T02:46:11;15.20;99.90
16515;DHT22;8370;52.556;7.970;2023-07-20T02:48:36;15.20;99.90
16515;DHT22;8370;52.556;7.970;2023-07-20T02:51:01;15.20;99.90
16515;DHT22;8370;52.556;7.970;2023-07-20T02:53:27;15.20;99.90
16515;DHT22;8370;52.556;7.970;2023-07-20T02:55:52;15.10;99.90
16515;DHT22;8370;52.556;7.970;2023-07-20T02:58:18;15.20;99.90
16515;DHT22;8370;52.556;7.970;2023-07-20T03:00:44;15.10;99.90
16515;DHT22;8370;52.556;7.970;2023-07-20T03:03:09;15.20;99.90
16515;DHT22;8370;52.556;7.970;2023-07-20T03:05:35;15.20;99.90
16515;DHT22;8370;52.556;7.970;2023-07-20T03:08:03;15.20;99.90
16515;DHT22;8370;52.556;7.970;2023-07-20T03:10:29;15.20;99.90
16515;DHT22;8370;52.556;7.970;2023-07-20T03:12:54;15.20;99.90
16515;DHT22;8370;52.556;7.970;2023-07-20T03:15:19;15.20;99.90
16515;DHT22;8370;52.556;7.970;2023-07-20T03:17:45;15.20;99.90
16515;DHT22;8370;52.556;7.970;2023-07-20T03:20:10;15.20;99.90
16515;DHT22;8370;52.556;7.970;2023-07-20T03:22:38;15.20;99.90
16515;DHT22;8370;52.556;7.970;2023-07-20T03:25:03;15.10;99.90
16515;DHT22;8370;52.556;7.970;2023-07-20T03:27:29;15.10;99.90
16515;DHT22;8370;52.556;7.970;2023-07-20T03:29:55;15.10;99.90
16515;DHT22;8370;52.556;7.970;2023-07-20T03:32:20;15.10;99.90
16515;DHT22;8370;52.556;7.970;2023-07-20T03:34:46;15.10;99.90
16515;DHT22;8370;52.556;7.970;2023-07-20T03:37:12;15.10;99.90
16515;DHT22;8370;52.556;7.970;2023-07-20T03:39:38;15.00;99.90
16515;DHT22;8370;52.556;7.970;2023-07-20T03:42:03;15.00;99.90
16515;DHT22;8370;52.556;7.970;2023-07-20T03:44:29;15.00;99.90
16515;DHT22;8370;52.556;7.970;2023-07-20T03:46:54;14.90;99.90
16515;DHT22;8370;52.556;7.970;2023-07-20T03:49:20;14.90;99.90
16515;DHT22;8370;52.556;7.970;2023-07-20T03:51:45;14.90;99.90
16515;DHT22;8370;52.556;7.970;2023-07-20T03:54:10;14.90;99.90
16515;DHT22;8370;52.556;7.970;2023-07-20T03:56:36;14.80;99.90
16515;DHT22;8370;52.556;7.970;2023-07-20T03:59:01;14.90;99.90
16515;DHT22;8370;52.556;7.970;2023-07-20T04:01:27;14.90;99.90
16515;DHT22;8370;52.556;7.970;2023-07-20T04:03:52;14.90;99.90
16515;DHT22;8370;52.556;7.970;2023-07-20T04:06:18;14.90;99.90
16515;DHT22;8370;52.556;7.970;2023-07-20T04:08:44;14.90;99.90
16515;DHT22;8370;52.556;7.970;2023-07-20T04:11:09;14.90;99.90
16515;DHT22;8370;52.556;7.970;2023-07-20T04:13:35;14.90;99.90
16515;DHT22;8370;52.556;7.970;2023-07-20T04:16:00;14.90;99.90
16515;DHT22;8370;52.556;7.970;2023-07-20T04:18:26;14.90;99.90
16515;DHT22;8370;52.556;7.970;2023-07-20T04:20:51;14.90;99.90
16515;DHT22;8370;52.556;7.970;2023-07-20T04:23:17;14.80;99.90
16515;DHT22;8370;52.556;7.970;2023-07-20T04:25:43;14.80;99.90
16515;DHT22;8370;52.556;7.970;2023-07-20T04:28:09;14.80;99.90
16515;DHT22;8370;52.556;7.970;2023-07-20T04:30:35;14.70;99.90
16515;DHT22;8370;52.556;7.970;2023-07-20T04:33:01;14.70;99.90
16515;DHT22;8370;52.556;7.970;2023-07-20T04:38:10;14.60;99.90
16515;DHT22;8370;52.556;7.970;2023-07-20T04:40:36;14.60;99.90
16515;DHT22;8370;52.556;7.970;2023-07-20T04:43:01;14.60;99.90
16515;DHT22;8370;52.556;7.970;2023-07-20T04:45:27;14.50;99.90
16515;DHT22;8370;52.556;7.970;2023-07-20T04:47:52;14.50;99.90
16515;DHT22;8370;52.556;7.970;2023-07-20T04:50:17;14.50;99.90
16515;DHT22;8370;52.556;7.970;2023-07-20T04:52:43;14.50;99.90
16515;DHT22;8370;52.556;7.970;2023-07-20T04:55:11;14.50;99.90
16515;DHT22;8370;52.556;7.970;2023-07-20T04:57:36;14.50;99.90
16515;DHT22;8370;52.556;7.970;2023-07-20T05:00:02;14.50;99.90
16515;DHT22;8370;52.556;7.970;2023-07-20T05:02:28;14.40;99.90
16515;DHT22;8370;52.556;7.970;2023-07-20T05:04:54;14.40;99.90
16515;DHT22;8370;52.556;7.970;2023-07-20T05:07:19;14.40;99.90
16515;DHT22;8370;52.556;7.970;2023-07-20T05:09:45;14.40;99.90
16515;DHT22;8370;52.556;7.970;2023-07-20T05:12:10;14.50;99.90
16515;DHT22;8370;52.556;7.970;2023-07-20T05:14:37;14.50;99.90
16515;DHT22;8370;52.556;7.970;2023-07-20T05:17:03;14.50;99.90
16515;DHT22;8370;52.556;7.970;2023-07-20T05:19:28;14.50;99.90
16515;DHT22;8370;52.556;7.970;2023-07-20T05:21:54;14.60;99.90
16515;DHT22;8370;52.556;7.970;2023-07-20T05:24:20;14.50;99.90
16515;DHT22;8370;52.556;7.970;2023-07-20T05:26:45;14.60;99.90
16515;DHT22;8370;52.556;7.970;2023-07-20T05:29:10;14.60;99.90
16515;DHT22;8370;52.556;7.970;2023-07-20T05:31:36;14.60;99.90
16515;DHT22;8370;52.556;7.970;2023-07-20T05:34:01;14.60;99.90
16515;DHT22;8370;52.556;7.970;2023-07-20T05:36:27;14.60;99.90
16515;DHT22;8370;52.556;7.970;2023-07-20T05:38:52;14.70;99.90
16515;DHT22;8370;52.556;7.970;2023-07-20T05:41:18;14.70;99.90
16515;DHT22;8370;52.556;7.970;2023-07-20T05:43:43;14.80;99.90
16515;DHT22;8370;52.556;7.970;2023-07-20T05:46:09;14.80;99.90
16515;DHT22;8370;52.556;7.970;2023-07-20T05:48:35;14.90;99.90
16515;DHT22;8370;52.556;7.970;2023-07-20T05:51:01;14.90;99.90
16515;DHT22;8370;52.556;7.970;2023-07-20T05:53:26;15.00;99.90
16515;DHT22;8370;52.556;7.970;2023-07-20T05:55:52;15.00;99.90
16515;DHT22;8370;52.556;7.970;2023-07-20T05:58:18;15.10;99.90
16515;DHT22;8370;52.556;7.970;2023-07-20T06:00:44;15.10;99.90
16515;DHT22;8370;52.556;7.970;2023-07-20T06:03:12;15.20;99.90
16515;DHT22;8370;52.556;7.970;2023-07-20T06:05:37;15.30;99.90
16515;DHT22;8370;52.556;7.970;2023-07-20T06:08:03;15.30;99.90
16515;DHT22;8370;52.556;7.970;2023-07-20T06:10:29;15.30;99.90
16515;DHT22;8370;52.556;7.970;2023-07-20T06:12:54;15.30;99.90
16515;DHT22;8370;52.556;7.970;2023-07-20T06:15:28;15.30;99.90
16515;DHT22;8370;52.556;7.970;2023-07-20T06:17:54;15.40;99.90
16515;DHT22;8370;52.556;7.970;2023-07-20T06:20:21;15.40;99.90
16515;DHT22;8370;52.556;7.970;2023-07-20T06:22:46;15.50;99.90
16515;DHT22;8370;52.556;7.970;2023-07-20T06:25:12;15.50;99.90
16515;DHT22;8370;52.556;7.970;2023-07-20T06:27:37;15.60;99.90
16515;DHT22;8370;52.556;7.970;2023-07-20T06:30:10;15.60;99.90
16515;DHT22;8370;52.556;7.970;2023-07-20T06:32:35;15.70;99.90
16515;DHT22;8370;52.556;7.970;2023-07-20T06:35:02;15.70;99.90
16515;DHT22;8370;52.556;7.970;2023-07-20T06:37:28;15.80;99.90
16515;DHT22;8370;52.556;7.970;2023-07-20T06:39:53;15.80;99.90
16515;DHT22;8370;52.556;7.970;2023-07-20T06:42:18;15.90;99.90
16515;DHT22;8370;52.556;7.970;2023-07-20T06:44:44;15.90;99.90
16515;DHT22;8370;52.556;7.970;2023-07-20T06:47:10;16.00;99.90
16515;DHT22;8370;52.556;7.970;2023-07-20T06:49:36;16.00;99.90
16515;DHT22;8370;52.556;7.970;2023-07-20T06:52:01;16.00;99.90
16515;DHT22;8370;52.556;7.970;2023-07-20T06:54:27;16.00;99.90
16515;DHT22;8370;52.556;7.970;2023-07-20T06:56:52;16.00;99.90
16515;DHT22;8370;52.556;7.970;2023-07-20T06:59:18;16.10;99.90
16515;DHT22;8370;52.556;7.970;2023-07-20T07:01:43;16.10;99.90
16515;DHT22;8370;52.556;7.970;2023-07-20T07:04:09;16.10;99.90
16515;DHT22;8370;52.556;7.970;2023-07-20T07:06:34;16.20;99.90
16515;DHT22;8370;52.556;7.970;2023-07-20T07:09:02;16.40;99.90
16515;DHT22;8370;52.556;7.970;2023-07-20T07:11:28;16.40;99.90
16515;DHT22;8370;52.556;7.970;2023-07-20T07:13:54;16.50;99.90
16515;DHT22;8370;52.556;7.970;2023-07-20T07:16:20;16.60;99.90
16515;DHT22;8370;52.556;7.970;2023-07-20T07:18:45;16.80;99.90
16515;DHT22;8370;52.556;7.970;2023-07-20T07:21:11;16.90;99.90
16515;DHT22;8370;52.556;7.970;2023-07-20T07:23:39;16.90;99.90
16515;DHT22;8370;52.556;7.970;2023-07-20T07:26:05;17.00;99.90
16515;DHT22;8370;52.556;7.970;2023-07-20T07:28:30;17.10;99.90
16515;DHT22;8370;52.556;7.970;2023-07-20T07:30:57;17.00;99.90
16515;DHT22;8370;52.556;7.970;2023-07-20T07:33:22;17.00;99.90
16515;DHT22;8370;52.556;7.970;2023-07-20T07:35:49;17.10;99.90
16515;DHT22;8370;52.556;7.970;2023-07-20T07:38:14;17.10;99.90
16515;DHT22;8370;52.556;7.970;2023-07-20T07:40:40;17.00;99.90
16515;DHT22;8370;52.556;7.970;2023-07-20T07:43:05;17.10;99.90
16515;DHT22;8370;52.556;7.970;2023-07-20T07:45:33;17.10;99.90
16515;DHT22;8370;52.556;7.970;2023-07-20T07:47:59;17.20;99.90
16515;DHT22;8370;52.556;7.970;2023-07-20T07:50:24;17.30;99.90
16515;DHT22;8370;52.556;7.970;2023-07-20T07:52:49;17.50;99.90
16515;DHT22;8370;52.556;7.970;2023-07-20T07:55:15;17.50;99.90
16515;DHT22;8370;52.556;7.970;2023-07-20T07:57:43;17.70;99.90
16515;DHT22;8370;52.556;7.970;2023-07-20T08:00:08;17.80;99.90
16515;DHT22;8370;52.556;7.970;2023-07-20T08:02:40;18.00;99.90
16515;DHT22;8370;52.556;7.970;2023-07-20T08:05:05;18.10;99.90
16515;DHT22;8370;52.556;7.970;2023-07-20T08:07:31;18.10;99.90
16515;DHT22;8370;52.556;7.970;2023-07-20T08:09:56;18.20;99.90
16515;DHT22;8370;52.556;7.970;2023-07-20T08:12:22;18.20;99.90
16515;DHT22;8370;52.556;7.970;2023-07-20T08:14:48;18.30;99.90
16515;DHT22;8370;52.556;7.970;2023-07-20T08:17:13;18.40;99.90
16515;DHT22;8370;52.556;7.970;2023-07-20T08:19:39;18.50;99.90
16515;DHT22;8370;52.556;7.970;2023-07-20T08:22:07;18.70;99.90
16515;DHT22;8370;52.556;7.970;2023-07-20T08:24:32;18.80;99.90
16515;DHT22;8370;52.556;7.970;2023-07-20T08:26:58;19.00;99.90
16515;DHT22;8370;52.556;7.970;2023-07-20T08:29:24;19.00;99.90
16515;DHT22;8370;52.556;7.970;2023-07-20T08:31:49;19.10;99.90
16515;DHT22;8370;52.556;7.970;2023-07-20T08:34:15;19.20;99.90
16515;DHT22;8370;52.556;7.970;2023-07-20T08:36:40;19.10;99.90
16515;DHT22;8370;52.556;7.970;2023-07-20T08:39:06;19.00;99.90
16515;DHT22;8370;52.556;7.970;2023-07-20T08:41:34;18.80;99.90
16515;DHT22;8370;52.556;7.970;2023-07-20T08:43:59;18.60;99.90
16515;DHT22;8370;52.556;7.970;2023-07-20T08:46:26;18.60;99.90
16515;DHT22;8370;52.556;7.970;2023-07-20T08:48:52;18.60;99.90
16515;DHT22;8370;52.556;7.970;2023-07-20T08:51:17;18.50;99.90
16515;DHT22;8370;52.556;7.970;2023-07-20T08:53:45;18.50;99.90
16515;DHT22;8370;52.556;7.970;2023-07-20T08:56:10;18.60;99.90
16515;DHT22;8370;52.556;7.970;2023-07-20T08:58:36;18.80;99.90
16515;DHT22;8370;52.556;7.970;2023-07-20T09:01:02;19.00;99.90
16515;DHT22;8370;52.556;7.970;2023-07-20T09:03:28;19.20;99.90
16515;DHT22;8370;52.556;7.970;2023-07-20T09:05:53;19.10;99.90
16515;DHT22;8370;52.556;7.970;2023-07-20T09:08:19;19.00;99.90
16515;DHT22;8370;52.556;7.970;2023-07-20T09:10:44;18.90;99.90
16515;DHT22;8370;52.556;7.970;2023-07-20T09:13:13;18.90;99.90
16515;DHT22;8370;52.556;7.970;2023-07-20T09:15:39;19.00;99.90
16515;DHT22;8370;52.556;7.970;2023-07-20T09:18:10;19.00;99.90
16515;DHT22;8370;52.556;7.970;2023-07-20T09:20:36;18.90;99.90
16515;DHT22;8370;52.556;7.970;2023-07-20T09:23:04;18.80;99.90
16515;DHT22;8370;52.556;7.970;2023-07-20T09:25:29;18.80;99.90
16515;DHT22;8370;52.556;7.970;2023-07-20T09:27:55;18.90;99.90
16515;DHT22;8370;52.556;7.970;2023-07-20T09:30:21;18.90;99.90
16515;DHT22;8370;52.556;7.970;2023-07-20T09:32:49;18.90;99.90
16515;DHT22;8370;52.556;7.970;2023-07-20T09:35:19;18.90;99.90
16515;DHT22;8370;52.556;7.970;2023-07-20T09:40:19;18.80;99.90
16515;DHT22;8370;52.556;7.970;2023-07-20T09:42:45;18.70;99.90
16515;DHT22;8370;52.556;7.970;2023-07-20T09:45:11;18.70;99.90
16515;DHT22;8370;52.556;7.970;2023-07-20T09:47:37;18.80;99.90
16515;DHT22;8370;52.556;7.970;2023-07-20T09:50:07;18.80;99.90
16515;DHT22;8370;52.556;7.970;2023-07-20T09:52:39;19.00;99.90
16515;DHT22;8370;52.556;7.970;2023-07-20T09:55:08;19.20;99.90
16515;DHT22;8370;52.556;7.970;2023-07-20T09:57:34;19.50;99.90
16515;DHT22;8370;52.556;7.970;2023-07-20T10:00:02;19.90;99.90
16515;DHT22;8370;52.556;7.970;2023-07-20T10:02:33;19.90;99.90
16515;DHT22;8370;52.556;7.970;2023-07-20T10:05:00;19.90;99.90
16515;DHT22;8370;52.556;7.970;2023-07-20T10:07:26;20.10;99.90
16515;DHT22;8370;52.556;7.970;2023-07-20T10:09:52;20.10;99.90
16515;DHT22;8370;52.556;7.970;2023-07-20T10:12:18;19.90;99.90
16515;DHT22;8370;52.556;7.970;2023-07-20T10:14:49;19.70;99.90
16515;DHT22;8370;52.556;7.970;2023-07-20T10:17:16;19.50;99.90
16515;DHT22;8370;52.556;7.970;2023-07-20T10:19:43;19.20;99.90
16515;DHT22;8370;52.556;7.970;2023-07-20T10:22:14;19.10;99.90
16515;DHT22;8370;52.556;7.970;2023-07-20T10:24:41;19.00;99.90
16515;DHT22;8370;52.556;7.970;2023-07-20T10:27:06;18.90;99.90
16515;DHT22;8370;52.556;7.970;2023-07-20T10:29:32;18.90;99.90
16515;DHT22;8370;52.556;7.970;2023-07-20T10:31:58;19.20;99.90
16515;DHT22;8370;52.556;7.970;2023-07-20T10:34:23;19.30;99.90
16515;DHT22;8370;52.556;7.970;2023-07-20T10:36:49;19.40;99.90
16515;DHT22;8370;52.556;7.970;2023-07-20T10:39:27;19.50;99.90
16515;DHT22;8370;52.556;7.970;2023-07-20T10:42:02;19.50;99.90
16515;DHT22;8370;52.556;7.970;2023-07-20T10:44:28;19.60;99.90
16515;DHT22;8370;52.556;7.970;2023-07-20T10:47:06;19.70;99.90
16515;DHT22;8370;52.556;7.970;2023-07-20T10:49:34;19.80;99.90
16515;DHT22;8370;52.556;7.970;2023-07-20T10:52:03;19.90;99.90
16515;DHT22;8370;52.556;7.970;2023-07-20T10:57:21;20.20;99.90
16515;DHT22;8370;52.556;7.970;2023-07-20T10:59:45;20.30;99.90
16515;DHT22;8370;52.556;7.970;2023-07-20T11:02:12;20.50;99.90
16515;DHT22;8370;52.556;7.970;2023-07-20T11:07:03;20.80;99.90
16515;DHT22;8370;52.556;7.970;2023-07-20T11:09:33;20.90;99.90
16515;DHT22;8370;52.556;7.970;2023-07-20T11:14:55;21.00;99.90
16515;DHT22;8370;52.556;7.970;2023-07-20T11:17:22;21.10;99.90
16515;DHT22;8370;52.556;7.970;2023-07-20T11:19:57;21.20;99.90
16515;DHT22;8370;52.556;7.970;2023-07-20T11:22:23;21.10;99.90
16515;DHT22;8370;52.556;7.970;2023-07-20T11:24:49;21.20;99.90
16515;DHT22;8370;52.556;7.970;2023-07-20T11:27:15;21.40;99.90
16515;DHT22;8370;52.556;7.970;2023-07-20T11:29:40;21.40;99.90
16515;DHT22;8370;52.556;7.970;2023-07-20T11:32:06;21.50;99.90
16515;DHT22;8370;52.556;7.970;2023-07-20T11:34:32;21.60;99.90
16515;DHT22;8370;52.556;7.970;2023-07-20T11:36:58;21.70;99.90
16515;DHT22;8370;52.556;7.970;2023-07-20T11:39:24;21.70;99.90
16515;DHT22;8370;52.556;7.970;2023-07-20T11:41:51;21.80;99.90
16515;DHT22;8370;52.556;7.970;2023-07-20T11:44:17;21.90;99.90
16515;DHT22;8370;52.556;7.970;2023-07-20T11:46:43;21.90;99.90
16515;DHT22;8370;52.556;7.970;2023-07-20T11:49:09;22.00;99.90
16515;DHT22;8370;52.556;7.970;2023-07-20T11:51:35;22.20;99.90
16515;DHT22;8370;52.556;7.970;2023-07-20T11:54:01;21.80;99.90
16515;DHT22;8370;52.556;7.970;2023-07-20T11:56:26;21.60;99.90
16515;DHT22;8370;52.556;7.970;2023-07-20T11:58:55;21.70;99.90
16515;DHT22;8370;52.556;7.970;2023-07-20T12:01:26;21.60;99.90
16515;DHT22;8370;52.556;7.970;2023-07-20T12:03:55;21.90;99.90
16515;DHT22;8370;52.556;7.970;2023-07-20T12:06:22;22.20;99.90
16515;DHT22;8370;52.556;7.970;2023-07-20T12:08:48;22.50;99.90
16515;DHT22;8370;52.556;7.970;2023-07-20T12:11:13;23.00;99.90
16515;DHT22;8370;52.556;7.970;2023-07-20T12:13:41;23.40;99.90
16515;DHT22;8370;52.556;7.970;2023-07-20T12:16:13;23.30;99.90
16515;DHT22;8370;52.556;7.970;2023-07-20T12:18:40;22.90;99.90
16515;DHT22;8370;52.556;7.970;2023-07-20T12:21:05;22.20;99.90
16515;DHT22;8370;52.556;7.970;2023-07-20T12:23:40;21.80;99.90
16515;DHT22;8370;52.556;7.970;2023-07-20T12:26:09;21.40;99.90
16515;DHT22;8370;52.556;7.970;2023-07-20T12:28:38;21.10;99.90
16515;DHT22;8370;52.556;7.970;2023-07-20T12:31:05;20.70;99.90
16515;DHT22;8370;52.556;7.970;2023-07-20T12:33:31;20.60;99.90
16515;DHT22;8370;52.556;7.970;2023-07-20T12:35:56;20.40;99.90
16515;DHT22;8370;52.556;7.970;2023-07-20T12:38:24;20.20;99.90
16515;DHT22;8370;52.556;7.970;2023-07-20T12:40:49;20.00;99.90
16515;DHT22;8370;52.556;7.970;2023-07-20T12:43:15;20.00;99.90
16515;DHT22;8370;52.556;7.970;2023-07-20T12:45:40;20.00;99.90
16515;DHT22;8370;52.556;7.970;2023-07-20T12:48:06;19.90;99.90
16515;DHT22;8370;52.556;7.970;2023-07-20T12:50:32;19.80;99.90
16515;DHT22;8370;52.556;7.970;2023-07-20T12:52:57;19.90;99.90
16515;DHT22;8370;52.556;7.970;2023-07-20T12:55:23;19.90;99.90
16515;DHT22;8370;52.556;7.970;2023-07-20T12:57:48;19.80;99.90
16515;DHT22;8370;52.556;7.970;2023-07-20T13:00:14;19.80;99.90
16515;DHT22;8370;52.556;7.970;2023-07-20T13:02:40;19.70;99.90
16515;DHT22;8370;52.556;7.970;2023-07-20T13:05:06;19.60;99.90
16515;DHT22;8370;52.556;7.970;2023-07-20T13:07:33;19.50;99.90
16515;DHT22;8370;52.556;7.970;2023-07-20T13:09:59;19.40;99.90
16515;DHT22;8370;52.556;7.970;2023-07-20T13:12:26;19.40;99.90
16515;DHT22;8370;52.556;7.970;2023-07-20T13:14:51;19.30;99.90
16515;DHT22;8370;52.556;7.970;2023-07-20T13:17:17;19.20;99.90
16515;DHT22;8370;52.556;7.970;2023-07-20T13:19:42;19.20;99.90
16515;DHT22;8370;52.556;7.970;2023-07-20T13:22:08;19.20;99.90
16515;DHT22;8370;52.556;7.970;2023-07-20T13:24:35;19.20;99.90
16515;DHT22;8370;52.556;7.970;2023-07-20T13:27:00;19.20;99.90
16515;DHT22;8370;52.556;7.970;2023-07-20T13:29:26;19.20;99.90
16515;DHT22;8370;52.556;7.970;2023-07-20T13:31:51;19.30;99.90
16515;DHT22;8370;52.556;7.970;2023-07-20T13:34:17;19.40;99.90
16515;DHT22;8370;52.556;7.970;2023-07-20T13:36:42;19.40;99.90
16515;DHT22;8370;52.556;7.970;2023-07-20T13:39:08;19.30;99.90
16515;DHT22;8370;52.556;7.970;2023-07-20T13:41:34;19.30;99.90
16515;DHT22;8370;52.556;7.970;2023-07-20T13:43:59;19.40;99.90
16515;DHT22;8370;52.556;7.970;2023-07-20T13:46:25;19.30;99.90
16515;DHT22;8370;52.556;7.970;2023-07-20T13:48:51;19.40;99.90
16515;DHT22;8370;52.556;7.970;2023-07-20T13:51:16;19.30;99.90
16515;DHT22;8370;52.556;7.970;2023-07-20T13:53:41;19.40;99.90
16515;DHT22;8370;52.556;7.970;2023-07-20T13:56:07;19.40;99.90
16515;DHT22;8370;52.556;7.970;2023-07-20T13:58:32;19.50;99.90
16515;DHT22;8370;52.556;7.970;2023-07-20T14:00:58;19.40;99.90
16515;DHT22;8370;52.556;7.970;2023-07-20T14:03:24;19.40;99.90
16515;DHT22;8370;52.556;7.970;2023-07-20T14:05:50;19.50;99.90
16515;DHT22;8370;52.556;7.970;2023-07-20T14:08:15;19.40;99.90
16515;DHT22;8370;52.556;7.970;2023-07-20T14:10:40;19.50;99.90
16515;DHT22;8370;52.556;7.970;2023-07-20T14:13:06;19.50;99.90
16515;DHT22;8370;52.556;7.970;2023-07-20T14:15:33;19.60;99.90
16515;DHT22;8370;52.556;7.970;2023-07-20T14:18:00;19.70;99.90
16515;DHT22;8370;52.556;7.970;2023-07-20T14:20:25;19.80;99.90
16515;DHT22;8370;52.556;7.970;2023-07-20T14:22:50;20.00;99.90
16515;DHT22;8370;52.556;7.970;2023-07-20T14:25:16;20.30;99.90
16515;DHT22;8370;52.556;7.970;2023-07-20T14:27:41;20.40;99.90
16515;DHT22;8370;52.556;7.970;2023-07-20T14:30:07;20.70;99.90
16515;DHT22;8370;52.556;7.970;2023-07-20T14:32:34;20.70;99.90
16515;DHT22;8370;52.556;7.970;2023-07-20T14:34:59;20.80;99.90
16515;DHT22;8370;52.556;7.970;2023-07-20T14:37:25;21.00;99.90
16515;DHT22;8370;52.556;7.970;2023-07-20T14:39:50;21.10;99.90
16515;DHT22;8370;52.556;7.970;2023-07-20T14:42:16;21.20;99.90
16515;DHT22;8370;52.556;7.970;2023-07-20T14:44:41;21.30;99.90
16515;DHT22;8370;52.556;7.970;2023-07-20T14:47:07;21.30;99.90
16515;DHT22;8370;52.556;7.970;2023-07-20T14:49:32;21.30;99.90
16515;DHT22;8370;52.556;7.970;2023-07-20T14:51:57;21.40;99.90
16515;DHT22;8370;52.556;7.970;2023-07-20T14:54:23;21.60;99.90
16515;DHT22;8370;52.556;7.970;2023-07-20T14:56:49;21.70;99.90
16515;DHT22;8370;52.556;7.970;2023-07-20T14:59:16;21.90;99.90
16515;DHT22;8370;52.556;7.970;2023-07-20T15:01:43;22.00;99.90
16515;DHT22;8370;52.556;7.970;2023-07-20T15:04:11;21.90;99.90
16515;DHT22;8370;52.556;7.970;2023-07-20T15:06:36;21.70;99.90
16515;DHT22;8370;52.556;7.970;2023-07-20T15:09:02;21.50;99.90
16515;DHT22;8370;52.556;7.970;2023-07-20T15:11:29;21.30;99.90
16515;DHT22;8370;52.556;7.970;2023-07-20T15:13:55;21.30;99.90
16515;DHT22;8370;52.556;7.970;2023-07-20T15:16:20;21.30;99.90
16515;DHT22;8370;52.556;7.970;2023-07-20T15:18:45;21.30;99.90
16515;DHT22;8370;52.556;7.970;2023-07-20T15:21:11;21.50;99.90
16515;DHT22;8370;52.556;7.970;2023-07-20T15:23:37;21.60;99.90
16515;DHT22;8370;52.556;7.970;2023-07-20T15:26:02;21.60;99.90
16515;DHT22;8370;52.556;7.970;2023-07-20T15:28:28;21.70;99.90
16515;DHT22;8370;52.556;7.970;2023-07-20T15:31:03;21.70;99.90
16515;DHT22;8370;52.556;7.970;2023-07-20T15:33:29;21.90;99.90
16515;DHT22;8370;52.556;7.970;2023-07-20T15:35:55;21.90;99.90
16515;DHT22;8370;52.556;7.970;2023-07-20T15:38:20;22.00;99.90
16515;DHT22;8370;52.556;7.970;2023-07-20T15:40:49;21.90;99.90
16515;DHT22;8370;52.556;7.970;2023-07-20T15:43:15;21.90;99.90
16515;DHT22;8370;52.556;7.970;2023-07-20T15:45:40;21.80;99.90
16515;DHT22;8370;52.556;7.970;2023-07-20T15:48:06;21.90;99.90
16515;DHT22;8370;52.556;7.970;2023-07-20T15:50:31;22.10;99.90
16515;DHT22;8370;52.556;7.970;2023-07-20T15:52:56;22.30;99.90
16515;DHT22;8370;52.556;7.970;2023-07-20T15:55:22;22.60;99.90
16515;DHT22;8370;52.556;7.970;2023-07-20T15:57:47;22.90;99.90
16515;DHT22;8370;52.556;7.970;2023-07-20T16:00:13;22.90;99.90
16515;DHT22;8370;52.556;7.970;2023-07-20T16:02:39;22.90;99.90
16515;DHT22;8370;52.556;7.970;2023-07-20T16:05:04;22.70;99.90